Terminal Aerodrome Forecast
Issued by NWS

Home | Current Version | Previous Version | Text Only | Print | Product List | Glossary On
Versions: 1 2 3 4 5 6 7 8 9 10 11 12 13 14 15 16
000
FTUS43 KSGF 212038 AAA
TAFBBG
TAF AMD
KBBG 212038Z 2121/2218 17013G22KT P6SM BKN035
     FM220100 17014G21KT 6SM -SHRA VCTS OVC025CB
     FM220700 20008KT P6SM BKN040
     FM221000 23009KT P6SM SCT100
     FM221400 24012G21KT P6SM BKN025=

USA.gov is the U.S. government's official web portal to all federal, state and local government web resources and services.